createdAt,value
2022-10-05T03:57:47.289Z,77.32
2022-10-05T04:00:56.202Z,77.32
2022-10-05T04:04:04.294Z,78.69
2022-10-05T04:07:11.628Z,78.53
2022-10-05T04:10:49.413Z,78.47
2022-10-05T04:14:00.842Z,77.93
2022-10-05T04:17:09.854Z,78.23
2022-10-05T04:20:22.235Z,78.08
2022-10-05T04:23:50.711Z,78.35
2022-10-05T04:26:57.598Z,77.65
2022-10-05T04:30:09.195Z,77.22
2022-10-05T04:33:13.602Z,77.31
2022-10-05T04:36:24.611Z,76.96
2022-10-05T04:39:53.634Z,77.04
2022-10-05T04:43:17.358Z,77.40
2022-10-05T04:46:58.325Z,77.65
2022-10-05T04:50:20.402Z,77.65
2022-10-05T04:53:37.161Z,77.69
2022-10-05T04:56:51.775Z,77.28
2022-10-05T04:59:59.706Z,77.74
2022-10-05T05:03:39.281Z,78.25
2022-10-05T05:07:05.450Z,77.30
2022-10-05T05:10:32.426Z,77.10
2022-10-05T05:13:53.925Z,77.94
2022-10-05T05:17:15.067Z,78.77
2022-10-05T05:20:59.357Z,78.56
2022-10-05T05:24:20.507Z,77.65
2022-10-05T05:27:25.377Z,77.96
2022-10-05T05:30:43.670Z,78.08
2022-10-05T05:33:48.545Z,78.24
2022-10-05T05:37:04.172Z,77.71
2022-10-05T05:40:18.551Z,77.86
2022-10-05T05:43:35.863Z,77.21
2022-10-05T05:47:02.394Z,78.13
2022-10-05T05:50:10.312Z,77.89
2022-10-05T05:53:31.590Z,77.50
2022-10-05T05:56:45.236Z,76.37
2022-10-05T06:00:00.614Z,76.55
2022-10-05T06:03:18.943Z,77.96
2022-10-05T06:06:26.880Z,78.14
2022-10-05T06:09:37.981Z,76.29
2022-10-05T06:12:48.376Z,76.67
2022-10-05T06:15:57.887Z,77.54
2022-10-05T06:19:22.546Z,78.95
2022-10-05T06:22:38.747Z,79.46
2022-10-05T06:26:05.982Z,79.37
2022-10-05T06:29:19.113Z,79.34
2022-10-05T06:32:41.326Z,79.89
2022-10-05T06:35:55.185Z,80.34
2022-10-05T06:39:31.897Z,80.24
2022-10-05T06:43:05.430Z,81.16
2022-10-05T06:46:26.602Z,82.12
2022-10-05T06:49:53.469Z,81.32
2022-10-05T06:53:14.944Z,81.37
2022-10-05T06:56:25.511Z,80.97
2022-10-05T06:59:46.561Z,77.56
2022-10-05T07:02:54.560Z,76.76
2022-10-05T07:06:50.952Z,77.53
2022-10-05T07:10:22.222Z,75.89
2022-10-05T07:13:46.150Z,76.37
2022-10-05T07:17:07.093Z,78.28
2022-10-05T07:20:15.822Z,76.21
2022-10-05T07:23:32.754Z,75.58
2022-10-05T07:26:54.961Z,75.17
2022-10-05T07:30:00.965Z,76.12
2022-10-05T07:33:17.694Z,75.86
2022-10-05T07:36:59.273Z,75.53
2022-10-05T07:40:29.657Z,74.34
2022-10-05T07:44:02.358Z,73.64
2022-10-05T07:47:17.339Z,74.75
2022-10-05T07:50:29.580Z,74.11
2022-10-05T07:53:44.467Z,74.42
2022-10-05T07:57:18.819Z,74.19
2022-10-05T08:00:23.784Z,75.15
2022-10-05T08:03:58.231Z,73.92
2022-10-05T08:07:05.690Z,74.53
2022-10-05T08:10:18.450Z,73.40
2022-10-05T08:13:35.591Z,71.60
2022-10-05T08:16:38.497Z,71.79
2022-10-05T08:19:50.886Z,70.04
2022-10-05T08:23:18.759Z,71.99
2022-10-05T08:26:30.977Z,72.29
2022-10-05T08:29:56.502Z,72.88
2022-10-05T08:33:14.694Z,71.03
2022-10-05T08:36:24.055Z,72.43
2022-10-05T08:39:36.095Z,72.57
2022-10-05T08:42:58.702Z,71.97
2022-10-05T08:46:31.385Z,70.28
2022-10-05T08:50:04.236Z,70.54
2022-10-05T08:53:28.809Z,70.42
2022-10-05T08:56:56.045Z,69.63
2022-10-05T09:00:23.234Z,69.44
2022-10-05T09:04:01.970Z,69.80
2022-10-05T09:07:37.000Z,69.92
2022-10-05T09:10:59.377Z,70.40
2022-10-05T09:14:26.932Z,70.58
2022-10-05T09:17:43.147Z,70.94
2022-10-05T09:20:56.010Z,71.29
2022-10-05T09:24:13.286Z,70.23
2022-10-05T09:27:19.720Z,70.14
2022-10-05T09:31:03.755Z,68.94
2022-10-05T09:34:31.034Z,68.62
2022-10-05T09:37:53.578Z,67.43
2022-10-05T09:41:14.821Z,68.45
2022-10-05T09:44:54.626Z,68.86
2022-10-05T09:48:38.164Z,67.99
2022-10-05T09:52:20.648Z,68.84
2022-10-05T09:55:44.161Z,66.91
2022-10-05T09:59:19.036Z,67.45
2022-10-05T10:02:33.053Z,66.59
2022-10-05T10:06:10.446Z,66.24
2022-10-05T10:09:27.866Z,65.36
2022-10-05T10:13:02.529Z,65.53
2022-10-05T10:16:23.782Z,66.58
2022-10-05T10:19:57.834Z,67.41
2022-10-05T10:24:00.085Z,67.33
2022-10-05T10:27:16.415Z,67.91
2022-10-05T10:30:40.790Z,66.71
2022-10-05T10:33:45.884Z,65.13
2022-10-05T10:36:51.280Z,65.73
2022-10-05T10:40:06.228Z,65.99
2022-10-05T10:43:45.809Z,65.75
2022-10-05T10:47:09.878Z,65.53
2022-10-05T10:50:28.244Z,66.45
2022-10-05T10:54:03.985Z,67.43
2022-10-05T10:57:10.078Z,65.89
2022-10-05T11:00:22.243Z,65.43
2022-10-05T11:04:04.162Z,67.08
2022-10-05T11:07:24.943Z,66.38
2022-10-05T11:10:46.108Z,66.57
2022-10-05T11:14:21.195Z,65.10
2022-10-05T11:17:33.430Z,65.98
2022-10-05T11:20:49.289Z,66.49
2022-10-05T11:24:38.808Z,67.79
2022-10-05T11:27:59.487Z,68.54
2022-10-05T11:31:16.626Z,68.97
2022-10-05T11:34:48.613Z,68.73
2022-10-05T11:38:12.461Z,69.77
2022-10-05T11:41:44.143Z,69.12
2022-10-05T11:45:15.973Z,68.83
2022-10-05T11:48:30.137Z,69.16
2022-10-05T11:51:45.965Z,68.38
2022-10-05T11:55:10.266Z,68.57
2022-10-05T11:58:26.024Z,68.63
2022-10-05T12:01:46.658Z,68.06
2022-10-05T12:04:54.862Z,66.69
2022-10-05T12:08:03.573Z,67.09
2022-10-05T12:11:32.394Z,66.62
2022-10-05T12:15:19.009Z,65.75
2022-10-05T12:18:31.089Z,64.60
2022-10-05T12:21:56.180Z,65.95
2022-10-05T12:25:04.196Z,65.97
2022-10-05T12:28:13.078Z,66.37
2022-10-05T12:31:46.470Z,63.48
2022-10-05T12:35:29.686Z,61.97
2022-10-05T12:38:46.018Z,63.42
2022-10-05T12:42:00.094Z,61.94
2022-10-05T12:45:23.666Z,63.28
2022-10-05T12:48:31.500Z,62.00
2022-10-05T12:51:53.727Z,62.90
2022-10-05T12:55:11.184Z,62.33
2022-10-05T12:58:21.223Z,59.90
2022-10-05T13:01:49.293Z,60.36
2022-10-05T13:05:21.615Z,60.19
2022-10-05T13:08:50.989Z,60.86
2022-10-05T13:11:57.677Z,58.69
2022-10-05T13:15:16.762Z,58.60
2022-10-05T13:18:38.484Z,59.31
2022-10-05T13:21:49.517Z,59.76
2022-10-05T13:25:13.583Z,59.26
2022-10-05T13:28:36.516Z,60.62
2022-10-05T13:31:50.749Z,59.56
2022-10-05T13:35:06.727Z,59.22
2022-10-05T13:38:26.882Z,58.58
2022-10-05T13:41:28.860Z,58.28
2022-10-05T13:44:42.731Z,58.83
2022-10-05T13:48:19.830Z,58.63
2022-10-05T13:51:28.088Z,58.66
2022-10-05T13:55:06.777Z,59.29
2022-10-05T13:58:33.154Z,59.90
2022-10-05T14:01:47.646Z,61.05
2022-10-05T14:05:01.950Z,62.05
2022-10-05T14:08:04.137Z,61.47
2022-10-05T14:11:26.725Z,61.02
2022-10-05T14:14:50.042Z,61.30
2022-10-05T14:17:52.680Z,60.18
2022-10-05T14:21:16.841Z,60.59
2022-10-05T14:24:43.247Z,61.74
2022-10-05T14:27:54.798Z,60.62
2022-10-05T14:31:03.785Z,60.40
2022-10-05T14:34:24.833Z,61.30
2022-10-05T14:37:58.029Z,61.73
2022-10-05T14:41:27.897Z,62.41
2022-10-05T14:48:00.024Z,60.47
2022-10-05T14:51:03.292Z,63.37
2022-10-05T14:54:20.635Z,62.25
2022-10-05T14:57:37.426Z,62.64
2022-10-05T15:01:11.125Z,63.48
2022-10-05T15:04:25.292Z,60.53
2022-10-05T15:07:40.924Z,60.19
2022-10-05T15:10:50.901Z,60.66
2022-10-05T15:13:54.425Z,60.50
2022-10-05T15:17:20.470Z,62.04
2022-10-05T15:20:34.736Z,62.35
